sensor_id;sensor_type;location;lat;lon;timestamp;temperature;humidity
7936;DHT22;4013;49.744;8.118;2023-09-18T04:47:44;21.30;99.90
7936;DHT22;4013;49.744;8.118;2023-09-18T04:50:11;21.30;99.90
7936;DHT22;4013;49.744;8.118;2023-09-18T04:52:38;21.30;99.90
7936;DHT22;4013;49.744;8.118;2023-09-18T04:55:06;21.20;99.90
7936;DHT22;4013;49.744;8.118;2023-09-18T04:57:34;21.30;99.90
7936;DHT22;4013;49.744;8.118;2023-09-18T05:00:00;21.30;99.90
7936;DHT22;4013;49.744;8.118;2023-09-18T05:02:27;21.30;99.90
7936;DHT22;4013;49.744;8.118;2023-09-18T05:04:57;21.30;99.90
7936;DHT22;4013;49.744;8.118;2023-09-18T05:07:23;21.30;99.90
7936;DHT22;4013;49.744;8.118;2023-09-18T05:09:50;21.30;99.90
7936;DHT22;4013;49.744;8.118;2023-09-18T05:12:17;21.30;99.90
7936;DHT22;4013;49.744;8.118;2023-09-18T05:14:44;21.30;99.90
7936;DHT22;4013;49.744;8.118;2023-09-18T05:17:14;21.30;99.90
7936;DHT22;4013;49.744;8.118;2023-09-18T05:19:41;21.30;99.90
7936;DHT22;4013;49.744;8.118;2023-09-18T05:22:09;21.40;99.90
7936;DHT22;4013;49.744;8.118;2023-09-18T05:24:37;21.40;99.90
7936;DHT22;4013;49.744;8.118;2023-09-18T05:27:04;21.30;99.90
7936;DHT22;4013;49.744;8.118;2023-09-18T05:29:31;21.40;99.90
7936;DHT22;4013;49.744;8.118;2023-09-18T05:31:58;21.40;99.90
7936;DHT22;4013;49.744;8.118;2023-09-18T05:34:25;21.40;99.90
7936;DHT22;4013;49.744;8.118;2023-09-18T05:36:52;21.40;99.90
7936;DHT22;4013;49.744;8.118;2023-09-18T05:39:20;21.40;99.90
7936;DHT22;4013;49.744;8.118;2023-09-18T05:41:47;21.40;99.90
7936;DHT22;4013;49.744;8.118;2023-09-18T05:44:14;21.40;99.90
7936;DHT22;4013;49.744;8.118;2023-09-18T05:46:40;21.40;99.90
7936;DHT22;4013;49.744;8.118;2023-09-18T05:49:07;21.40;99.90
7936;DHT22;4013;49.744;8.118;2023-09-18T05:51:34;21.40;99.90
7936;DHT22;4013;49.744;8.118;2023-09-18T05:54:01;21.40;99.90
7936;DHT22;4013;49.744;8.118;2023-09-18T05:56:29;21.40;99.90
7936;DHT22;4013;49.744;8.118;2023-09-18T05:58:56;21.40;99.90
7936;DHT22;4013;49.744;8.118;2023-09-18T06:01:23;21.30;99.90
7936;DHT22;4013;49.744;8.118;2023-09-18T06:03:50;21.30;99.90
7936;DHT22;4013;49.744;8.118;2023-09-18T06:06:17;21.30;99.90
7936;DHT22;4013;49.744;8.118;2023-09-18T06:08:44;21.30;99.90
7936;DHT22;4013;49.744;8.118;2023-09-18T06:11:10;21.20;99.90
7936;DHT22;4013;49.744;8.118;2023-09-18T06:13:38;21.20;99.90
7936;DHT22;4013;49.744;8.118;2023-09-18T06:16:05;21.10;99.90
7936;DHT22;4013;49.744;8.118;2023-09-18T06:18:33;21.10;99.90
7936;DHT22;4013;49.744;8.118;2023-09-18T06:21:00;21.00;99.90
7936;DHT22;4013;49.744;8.118;2023-09-18T06:23:27;21.00;99.90
7936;DHT22;4013;49.744;8.118;2023-09-18T06:25:54;21.00;99.90
7936;DHT22;4013;49.744;8.118;2023-09-18T06:28:21;21.00;99.90
7936;DHT22;4013;49.744;8.118;2023-09-18T06:30:50;20.90;99.90
7936;DHT22;4013;49.744;8.118;2023-09-18T06:33:16;20.90;99.90
7936;DHT22;4013;49.744;8.118;2023-09-18T06:35:43;20.80;99.90
7936;DHT22;4013;49.744;8.118;2023-09-18T06:38:10;20.80;99.90
7936;DHT22;4013;49.744;8.118;2023-09-18T06:40:38;20.70;99.90
7936;DHT22;4013;49.744;8.118;2023-09-18T06:43:04;20.70;99.90
7936;DHT22;4013;49.744;8.118;2023-09-18T06:45:31;20.70;99.90
7936;DHT22;4013;49.744;8.118;2023-09-18T06:48:00;20.70;99.90
7936;DHT22;4013;49.744;8.118;2023-09-18T06:50:26;20.70;99.90
7936;DHT22;4013;49.744;8.118;2023-09-18T06:52:53;20.70;99.90
7936;DHT22;4013;49.744;8.118;2023-09-18T06:55:20;20.70;99.90
7936;DHT22;4013;49.744;8.118;2023-09-18T06:57:47;20.70;99.90
7936;DHT22;4013;49.744;8.118;2023-09-18T07:00:17;20.80;99.90
7936;DHT22;4013;49.744;8.118;2023-09-18T07:02:46;20.70;99.90
7936;DHT22;4013;49.744;8.118;2023-09-18T07:05:14;20.70;99.90
7936;DHT22;4013;49.744;8.118;2023-09-18T07:07:41;20.70;99.90
7936;DHT22;4013;49.744;8.118;2023-09-18T07:10:07;20.70;99.90
7936;DHT22;4013;49.744;8.118;2023-09-18T07:12:34;20.70;99.90
7936;DHT22;4013;49.744;8.118;2023-09-18T07:15:01;20.60;99.90
7936;DHT22;4013;49.744;8.118;2023-09-18T07:17:29;20.70;99.90
7936;DHT22;4013;49.744;8.118;2023-09-18T07:19:56;20.70;99.90
7936;DHT22;4013;49.744;8.118;2023-09-18T07:22:26;20.70;99.90
7936;DHT22;4013;49.744;8.118;2023-09-18T07:24:52;20.60;99.90
7936;DHT22;4013;49.744;8.118;2023-09-18T07:27:19;20.60;99.90
7936;DHT22;4013;49.744;8.118;2023-09-18T07:29:46;20.60;99.90
7936;DHT22;4013;49.744;8.118;2023-09-18T07:32:12;20.60;99.90
7936;DHT22;4013;49.744;8.118;2023-09-18T07:34:40;20.70;99.90
7936;DHT22;4013;49.744;8.118;2023-09-18T07:37:06;20.70;99.90
7936;DHT22;4013;49.744;8.118;2023-09-18T07:39:37;20.70;99.90
7936;DHT22;4013;49.744;8.118;2023-09-18T07:42:08;20.70;99.90
7936;DHT22;4013;49.744;8.118;2023-09-18T07:44:35;20.70;99.90
7936;DHT22;4013;49.744;8.118;2023-09-18T07:47:02;20.70;99.90
7936;DHT22;4013;49.744;8.118;2023-09-18T07:49:28;20.70;99.90
7936;DHT22;4013;49.744;8.118;2023-09-18T07:51:55;20.70;99.90
7936;DHT22;4013;49.744;8.118;2023-09-18T07:54:22;20.70;99.90
7936;DHT22;4013;49.744;8.118;2023-09-18T07:56:50;20.70;99.90
7936;DHT22;4013;49.744;8.118;2023-09-18T07:59:17;20.80;99.90
7936;DHT22;4013;49.744;8.118;2023-09-18T08:01:43;20.90;99.90
7936;DHT22;4013;49.744;8.118;2023-09-18T08:04:10;20.90;99.90
7936;DHT22;4013;49.744;8.118;2023-09-18T08:06:37;21.00;99.90
7936;DHT22;4013;49.744;8.118;2023-09-18T08:09:07;21.00;99.90
7936;DHT22;4013;49.744;8.118;2023-09-18T08:11:34;21.00;99.90
7936;DHT22;4013;49.744;8.118;2023-09-18T08:14:03;21.00;99.90
7936;DHT22;4013;49.744;8.118;2023-09-18T08:16:30;21.00;99.90
7936;DHT22;4013;49.744;8.118;2023-09-18T08:18:57;21.10;99.90
7936;DHT22;4013;49.744;8.118;2023-09-18T08:21:23;21.10;99.90
7936;DHT22;4013;49.744;8.118;2023-09-18T08:23:50;21.10;99.90
7936;DHT22;4013;49.744;8.118;2023-09-18T08:26:17;21.10;99.90
7936;DHT22;4013;49.744;8.118;2023-09-18T08:28:44;21.20;99.90
7936;DHT22;4013;49.744;8.118;2023-09-18T08:31:12;21.20;99.90
7936;DHT22;4013;49.744;8.118;2023-09-18T08:33:39;21.20;99.90
7936;DHT22;4013;49.744;8.118;2023-09-18T08:36:06;21.10;99.90
7936;DHT22;4013;49.744;8.118;2023-09-18T08:38:33;21.10;99.90
7936;DHT22;4013;49.744;8.118;2023-09-18T08:40:59;21.10;99.90
7936;DHT22;4013;49.744;8.118;2023-09-18T08:43:27;21.10;99.90
7936;DHT22;4013;49.744;8.118;2023-09-18T08:45:55;21.10;99.90
7936;DHT22;4013;49.744;8.118;2023-09-18T08:48:28;21.10;99.90
7936;DHT22;4013;49.744;8.118;2023-09-18T08:51:00;21.10;99.90
7936;DHT22;4013;49.744;8.118;2023-09-18T08:53:28;21.10;99.90
7936;DHT22;4013;49.744;8.118;2023-09-18T08:55:55;21.10;99.90
7936;DHT22;4013;49.744;8.118;2023-09-18T08:58:23;21.10;99.90
7936;DHT22;4013;49.744;8.118;2023-09-18T09:00:50;21.20;99.90
7936;DHT22;4013;49.744;8.118;2023-09-18T09:03:18;21.20;99.90
7936;DHT22;4013;49.744;8.118;2023-09-18T09:05:46;21.20;99.90
7936;DHT22;4013;49.744;8.118;2023-09-18T09:08:12;21.20;99.90
7936;DHT22;4013;49.744;8.118;2023-09-18T09:10:40;21.20;99.90
7936;DHT22;4013;49.744;8.118;2023-09-18T09:13:07;21.20;99.90
7936;DHT22;4013;49.744;8.118;2023-09-18T09:15:34;21.20;99.90
7936;DHT22;4013;49.744;8.118;2023-09-18T09:18:11;21.30;99.90
7936;DHT22;4013;49.744;8.118;2023-09-18T09:20:38;21.30;99.90
7936;DHT22;4013;49.744;8.118;2023-09-18T09:23:07;21.30;99.90
7936;DHT22;4013;49.744;8.118;2023-09-18T09:25:35;21.30;99.90
7936;DHT22;4013;49.744;8.118;2023-09-18T09:28:02;21.30;99.90
7936;DHT22;4013;49.744;8.118;2023-09-18T09:30:30;21.30;99.90
7936;DHT22;4013;49.744;8.118;2023-09-18T09:32:57;21.30;99.90
7936;DHT22;4013;49.744;8.118;2023-09-18T09:35:25;21.30;99.90
7936;DHT22;4013;49.744;8.118;2023-09-18T09:37:53;21.30;99.90
7936;DHT22;4013;49.744;8.118;2023-09-18T09:40:23;21.30;99.90
7936;DHT22;4013;49.744;8.118;2023-09-18T09:42:54;21.30;99.90
7936;DHT22;4013;49.744;8.118;2023-09-18T09:45:26;21.30;99.90
7936;DHT22;4013;49.744;8.118;2023-09-18T09:47:53;21.40;99.90
7936;DHT22;4013;49.744;8.118;2023-09-18T09:50:20;21.40;99.90
7936;DHT22;4013;49.744;8.118;2023-09-18T09:52:48;21.50;99.90
7936;DHT22;4013;49.744;8.118;2023-09-18T09:55:18;21.50;99.90
7936;DHT22;4013;49.744;8.118;2023-09-18T09:57:51;21.60;99.90
7936;DHT22;4013;49.744;8.118;2023-09-18T10:00:17;21.60;99.90
7936;DHT22;4013;49.744;8.118;2023-09-18T10:02:56;21.60;99.90
7936;DHT22;4013;49.744;8.118;2023-09-18T10:05:24;21.60;99.90
7936;DHT22;4013;49.744;8.118;2023-09-18T10:07:51;21.60;99.90
7936;DHT22;4013;49.744;8.118;2023-09-18T10:10:18;21.70;99.90
7936;DHT22;4013;49.744;8.118;2023-09-18T10:12:45;21.70;99.90
7936;DHT22;4013;49.744;8.118;2023-09-18T10:15:14;21.70;99.90
7936;DHT22;4013;49.744;8.118;2023-09-18T10:17:43;21.70;99.90
7936;DHT22;4013;49.744;8.118;2023-09-18T10:20:12;21.70;99.90
7936;DHT22;4013;49.744;8.118;2023-09-18T10:22:45;21.70;99.90
7936;DHT22;4013;49.744;8.118;2023-09-18T10:25:14;21.70;99.90
7936;DHT22;4013;49.744;8.118;2023-09-18T10:27:45;21.70;99.90
7936;DHT22;4013;49.744;8.118;2023-09-18T10:30:12;21.70;99.90
7936;DHT22;4013;49.744;8.118;2023-09-18T10:32:40;21.70;99.90
7936;DHT22;4013;49.744;8.118;2023-09-18T10:35:08;21.70;99.90
7936;DHT22;4013;49.744;8.118;2023-09-18T10:37:37;21.70;99.90
7936;DHT22;4013;49.744;8.118;2023-09-18T10:40:05;21.80;99.90
7936;DHT22;4013;49.744;8.118;2023-09-18T10:42:33;21.80;99.90
7936;DHT22;4013;49.744;8.118;2023-09-18T10:45:00;21.80;99.90
7936;DHT22;4013;49.744;8.118;2023-09-18T10:47:29;21.80;99.90
7936;DHT22;4013;49.744;8.118;2023-09-18T10:49:58;21.80;99.90
7936;DHT22;4013;49.744;8.118;2023-09-18T10:52:26;21.80;99.90
7936;DHT22;4013;49.744;8.118;2023-09-18T10:54:53;21.90;99.90
7936;DHT22;4013;49.744;8.118;2023-09-18T10:57:20;21.90;99.90
7936;DHT22;4013;49.744;8.118;2023-09-18T10:59:46;21.90;99.90
7936;DHT22;4013;49.744;8.118;2023-09-18T11:02:13;21.90;99.90
7936;DHT22;4013;49.744;8.118;2023-09-18T11:04:41;21.90;99.90
7936;DHT22;4013;49.744;8.118;2023-09-18T11:07:09;21.90;99.90
7936;DHT22;4013;49.744;8.118;2023-09-18T11:09:45;21.90;99.90
7936;DHT22;4013;49.744;8.118;2023-09-18T11:12:14;21.90;99.90
7936;DHT22;4013;49.744;8.118;2023-09-18T11:14:44;22.00;99.90
7936;DHT22;4013;49.744;8.118;2023-09-18T11:17:30;22.00;99.90
7936;DHT22;4013;49.744;8.118;2023-09-18T11:20:03;22.10;99.90
7936;DHT22;4013;49.744;8.118;2023-09-18T11:22:35;22.10;99.90
7936;DHT22;4013;49.744;8.118;2023-09-18T11:27:54;22.30;99.90
7936;DHT22;4013;49.744;8.118;2023-09-18T11:30:21;22.30;99.90
7936;DHT22;4013;49.744;8.118;2023-09-18T11:32:49;22.40;99.90
7936;DHT22;4013;49.744;8.118;2023-09-18T11:35:16;22.40;99.90
7936;DHT22;4013;49.744;8.118;2023-09-18T11:37:45;22.30;99.90
7936;DHT22;4013;49.744;8.118;2023-09-18T11:40:28;22.30;99.90
7936;DHT22;4013;49.744;8.118;2023-09-18T11:45:44;22.30;99.90
7936;DHT22;4013;49.744;8.118;2023-09-18T11:48:12;22.20;99.90
7936;DHT22;4013;49.744;8.118;2023-09-18T11:50:40;22.20;99.90
7936;DHT22;4013;49.744;8.118;2023-09-18T11:53:09;22.10;99.90
7936;DHT22;4013;49.744;8.118;2023-09-18T11:55:37;22.20;99.90
7936;DHT22;4013;49.744;8.118;2023-09-18T11:58:04;22.20;99.90
7936;DHT22;4013;49.744;8.118;2023-09-18T12:00:34;22.20;99.90
7936;DHT22;4013;49.744;8.118;2023-09-18T12:03:13;22.30;99.90
7936;DHT22;4013;49.744;8.118;2023-09-18T12:05:41;22.30;99.90
7936;DHT22;4013;49.744;8.118;2023-09-18T12:08:09;22.40;99.90
7936;DHT22;4013;49.744;8.118;2023-09-18T12:10:37;22.50;99.90
7936;DHT22;4013;49.744;8.118;2023-09-18T12:13:05;22.70;99.90
7936;DHT22;4013;49.744;8.118;2023-09-18T12:15:32;22.90;99.90
7936;DHT22;4013;49.744;8.118;2023-09-18T12:18:04;23.00;99.90
7936;DHT22;4013;49.744;8.118;2023-09-18T12:20:32;23.00;99.90
7936;DHT22;4013;49.744;8.118;2023-09-18T12:22:59;23.00;99.90
7936;DHT22;4013;49.744;8.118;2023-09-18T12:25:29;22.90;99.90
7936;DHT22;4013;49.744;8.118;2023-09-18T12:27:56;22.90;99.90
7936;DHT22;4013;49.744;8.118;2023-09-18T12:30:24;22.90;99.90
7936;DHT22;4013;49.744;8.118;2023-09-18T12:32:51;22.80;99.90
7936;DHT22;4013;49.744;8.118;2023-09-18T12:35:19;22.80;99.90
7936;DHT22;4013;49.744;8.118;2023-09-18T12:37:45;22.80;99.90
7936;DHT22;4013;49.744;8.118;2023-09-18T12:40:22;22.70;99.90
7936;DHT22;4013;49.744;8.118;2023-09-18T12:42:50;22.80;99.90
7936;DHT22;4013;49.744;8.118;2023-09-18T12:45:19;22.80;99.90
7936;DHT22;4013;49.744;8.118;2023-09-18T12:47:46;22.70;99.90
7936;DHT22;4013;49.744;8.118;2023-09-18T12:50:13;22.70;99.90
7936;DHT22;4013;49.744;8.118;2023-09-18T12:52:40;22.70;99.90
7936;DHT22;4013;49.744;8.118;2023-09-18T12:55:07;22.70;99.90
7936;DHT22;4013;49.744;8.118;2023-09-18T12:57:34;22.60;99.90
7936;DHT22;4013;49.744;8.118;2023-09-18T13:00:09;22.70;99.90
7936;DHT22;4013;49.744;8.118;2023-09-18T13:02:38;22.70;99.90
7936;DHT22;4013;49.744;8.118;2023-09-18T13:05:05;22.70;99.90
7936;DHT22;4013;49.744;8.118;2023-09-18T13:07:38;22.80;99.90
7936;DHT22;4013;49.744;8.118;2023-09-18T13:10:09;22.80;99.90
7936;DHT22;4013;49.744;8.118;2023-09-18T13:12:40;22.90;99.90
7936;DHT22;4013;49.744;8.118;2023-09-18T13:15:07;22.80;99.90
7936;DHT22;4013;49.744;8.118;2023-09-18T13:17:39;22.80;99.90
7936;DHT22;4013;49.744;8.118;2023-09-18T13:20:09;22.80;99.90
7936;DHT22;4013;49.744;8.118;2023-09-18T13:22:36;22.80;99.90
7936;DHT22;4013;49.744;8.118;2023-09-18T13:25:05;22.90;99.90
7936;DHT22;4013;49.744;8.118;2023-09-18T13:27:32;23.00;99.90
7936;DHT22;4013;49.744;8.118;2023-09-18T13:29:59;23.00;99.90
7936;DHT22;4013;49.744;8.118;2023-09-18T13:32:33;23.00;99.90
7936;DHT22;4013;49.744;8.118;2023-09-18T13:35:01;23.20;99.90
7936;DHT22;4013;49.744;8.118;2023-09-18T13:37:29;23.20;99.90
7936;DHT22;4013;49.744;8.118;2023-09-18T13:39:55;23.20;99.90
7936;DHT22;4013;49.744;8.118;2023-09-18T13:42:22;23.30;99.90
7936;DHT22;4013;49.744;8.118;2023-09-18T13:44:49;23.30;99.90
7936;DHT22;4013;49.744;8.118;2023-09-18T13:47:16;23.50;99.90
7936;DHT22;4013;49.744;8.118;2023-09-18T13:49:42;23.70;99.90
7936;DHT22;4013;49.744;8.118;2023-09-18T13:52:13;23.90;99.90
7936;DHT22;4013;49.744;8.118;2023-09-18T13:54:39;24.10;99.90
7936;DHT22;4013;49.744;8.118;2023-09-18T13:57:06;24.20;99.90
7936;DHT22;4013;49.744;8.118;2023-09-18T13:59:33;24.30;99.90
7936;DHT22;4013;49.744;8.118;2023-09-18T14:02:00;24.40;99.90
7936;DHT22;4013;49.744;8.118;2023-09-18T14:04:28;24.30;99.90
7936;DHT22;4013;49.744;8.118;2023-09-18T14:06:55;24.20;99.90
7936;DHT22;4013;49.744;8.118;2023-09-18T14:09:23;24.30;99.90
7936;DHT22;4013;49.744;8.118;2023-09-18T14:11:50;24.30;99.90
7936;DHT22;4013;49.744;8.118;2023-09-18T14:14:17;24.10;99.90
7936;DHT22;4013;49.744;8.118;2023-09-18T14:16:44;24.10;99.90
7936;DHT22;4013;49.744;8.118;2023-09-18T14:19:10;24.10;99.90
7936;DHT22;4013;49.744;8.118;2023-09-18T14:21:37;24.30;99.90
7936;DHT22;4013;49.744;8.118;2023-09-18T14:24:05;24.20;99.90
7936;DHT22;4013;49.744;8.118;2023-09-18T14:26:33;24.20;99.90
7936;DHT22;4013;49.744;8.118;2023-09-18T14:29:05;24.30;99.90
7936;DHT22;4013;49.744;8.118;2023-09-18T14:31:32;24.20;99.90
7936;DHT22;4013;49.744;8.118;2023-09-18T14:33:59;24.20;99.90
7936;DHT22;4013;49.744;8.118;2023-09-18T14:36:26;24.20;99.90
7936;DHT22;4013;49.744;8.118;2023-09-18T14:38:52;24.30;99.90
7936;DHT22;4013;49.744;8.118;2023-09-18T14:41:20;24.50;99.90
7936;DHT22;4013;49.744;8.118;2023-09-18T14:43:49;24.50;99.90
7936;DHT22;4013;49.744;8.118;2023-09-18T14:46:15;24.30;99.90
7936;DHT22;4013;49.744;8.118;2023-09-18T14:48:42;24.30;99.90
7936;DHT22;4013;49.744;8.118;2023-09-18T14:51:09;24.30;99.90
7936;DHT22;4013;49.744;8.118;2023-09-18T14:53:37;24.40;99.90
7936;DHT22;4013;49.744;8.118;2023-09-18T14:56:03;24.40;99.90
7936;DHT22;4013;49.744;8.118;2023-09-18T14:58:30;24.50;99.90
7936;DHT22;4013;49.744;8.118;2023-09-18T15:00:58;24.50;99.90
7936;DHT22;4013;49.744;8.118;2023-09-18T15:03:25;24.50;99.90
7936;DHT22;4013;49.744;8.118;2023-09-18T15:05:52;24.50;99.90
7936;DHT22;4013;49.744;8.118;2023-09-18T15:08:20;24.50;99.90
7936;DHT22;4013;49.744;8.118;2023-09-18T15:10:47;24.50;99.90
7936;DHT22;4013;49.744;8.118;2023-09-18T15:13:14;24.40;99.90
7936;DHT22;4013;49.744;8.118;2023-09-18T15:15:41;24.30;99.90
7936;DHT22;4013;49.744;8.118;2023-09-18T15:18:10;24.30;99.90
7936;DHT22;4013;49.744;8.118;2023-09-18T15:20:36;24.30;99.90
7936;DHT22;4013;49.744;8.118;2023-09-18T15:23:05;24.40;99.90
7936;DHT22;4013;49.744;8.118;2023-09-18T15:25:33;24.60;99.90
7936;DHT22;4013;49.744;8.118;2023-09-18T15:28:03;24.60;99.90
7936;DHT22;4013;49.744;8.118;2023-09-18T15:30:30;24.70;99.90
7936;DHT22;4013;49.744;8.118;2023-09-18T15:32:57;24.70;99.90
7936;DHT22;4013;49.744;8.118;2023-09-18T15:35:25;24.70;99.90
7936;DHT22;4013;49.744;8.118;2023-09-18T15:37:53;24.70;99.90
7936;DHT22;4013;49.744;8.118;2023-09-18T15:40:20;24.70;99.90
7936;DHT22;4013;49.744;8.118;2023-09-18T15:42:48;24.60;99.90
7936;DHT22;4013;49.744;8.118;2023-09-18T15:45:15;24.50;99.90
7936;DHT22;4013;49.744;8.118;2023-09-18T15:47:42;24.40;99.90
7936;DHT22;4013;49.744;8.118;2023-09-18T15:50:09;24.30;99.90
7936;DHT22;4013;49.744;8.118;2023-09-18T15:52:38;24.10;99.90
7936;DHT22;4013;49.744;8.118;2023-09-18T15:55:05;24.00;99.90
7936;DHT22;4013;49.744;8.118;2023-09-18T15:57:32;24.00;99.90
7936;DHT22;4013;49.744;8.118;2023-09-18T15:59:59;23.80;99.90
7936;DHT22;4013;49.744;8.118;2023-09-18T16:02:29;23.70;99.90
7936;DHT22;4013;49.744;8.118;2023-09-18T16:04:57;23.70;99.90
7936;DHT22;4013;49.744;8.118;2023-09-18T16:07:25;23.70;99.90
7936;DHT22;4013;49.744;8.118;2023-09-18T16:09:53;23.60;99.90
7936;DHT22;4013;49.744;8.118;2023-09-18T16:12:20;23.60;99.90
7936;DHT22;4013;49.744;8.118;2023-09-18T16:14:47;23.60;99.90
7936;DHT22;4013;49.744;8.118;2023-09-18T16:17:14;23.50;99.90
7936;DHT22;4013;49.744;8.118;2023-09-18T16:19:41;23.50;99.90
7936;DHT22;4013;49.744;8.118;2023-09-18T16:22:08;23.50;99.90
7936;DHT22;4013;49.744;8.118;2023-09-18T16:24:36;23.50;99.90
7936;DHT22;4013;49.744;8.118;2023-09-18T16:27:04;23.40;99.90
7936;DHT22;4013;49.744;8.118;2023-09-18T16:29:31;23.40;99.90
7936;DHT22;4013;49.744;8.118;2023-09-18T16:31:58;23.40;99.90
7936;DHT22;4013;49.744;8.118;2023-09-18T16:34:25;23.30;99.90
7936;DHT22;4013;49.744;8.118;2023-09-18T16:36:52;23.30;99.90
7936;DHT22;4013;49.744;8.118;2023-09-18T16:39:19;23.20;99.90
7936;DHT22;4013;49.744;8.118;2023-09-18T16:41:48;23.20;99.90
7936;DHT22;4013;49.744;8.118;2023-09-18T16:44:16;23.20;99.90
7936;DHT22;4013;49.744;8.118;2023-09-18T16:46:43;23.20;99.90
7936;DHT22;4013;49.744;8.118;2023-09-18T16:49:10;23.20;99.90
7936;DHT22;4013;49.744;8.118;2023-09-18T16:51:39;23.10;99.90
7936;DHT22;4013;49.744;8.118;2023-09-18T16:54:07;23.00;99.90
7936;DHT22;4013;49.744;8.118;2023-09-18T16:56:33;22.90;99.90
7936;DHT22;4013;49.744;8.118;2023-09-18T16:59:00;22.90;99.90
7936;DHT22;4013;49.744;8.118;2023-09-18T17:01:29;22.70;99.90
7936;DHT22;4013;49.744;8.118;2023-09-18T17:03:56;22.70;99.90
7936;DHT22;4013;49.744;8.118;2023-09-18T17:06:23;22.60;99.90
7936;DHT22;4013;49.744;8.118;2023-09-18T17:08:49;22.40;99.90
7936;DHT22;4013;49.744;8.118;2023-09-18T17:11:16;22.30;99.90
7936;DHT22;4013;49.744;8.118;2023-09-18T17:13:43;22.10;99.90
7936;DHT22;4013;49.744;8.118;2023-09-18T17:16:10;21.90;99.90
7936;DHT22;4013;49.744;8.118;2023-09-18T17:18:40;21.80;99.90
7936;DHT22;4013;49.744;8.118;2023-09-18T17:21:07;21.50;99.90
7936;DHT22;4013;49.744;8.118;2023-09-18T17:23:34;21.40;99.90
7936;DHT22;4013;49.744;8.118;2023-09-18T17:26:01;21.20;99.90
7936;DHT22;4013;49.744;8.118;2023-09-18T17:28:29;21.20;99.90
7936;DHT22;4013;49.744;8.118;2023-09-18T17:30:55;21.00;99.90
7936;DHT22;4013;49.744;8.118;2023-09-18T17:33:22;21.00;99.90
7936;DHT22;4013;49.744;8.118;2023-09-18T17:35:50;20.90;99.90
7936;DHT22;4013;49.744;8.118;2023-09-18T17:38:17;20.90;99.90
7936;DHT22;4013;49.744;8.118;2023-09-18T17:40:44;20.80;99.90
7936;DHT22;4013;49.744;8.118;2023-09-18T17:43:10;20.80;99.90
7936;DHT22;4013;49.744;8.118;2023-09-18T17:45:37;20.80;99.90
7936;DHT22;4013;49.744;8.118;2023-09-18T17:48:04;20.80;99.90
7936;DHT22;4013;49.744;8.118;2023-09-18T17:50:33;20.70;99.90
7936;DHT22;4013;49.744;8.118;2023-09-18T17:53:01;20.70;99.90
7936;DHT22;4013;49.744;8.118;2023-09-18T17:55:28;20.60;99.90
7936;DHT22;4013;49.744;8.118;2023-09-18T17:57:55;20.60;99.90
7936;DHT22;4013;49.744;8.118;2023-09-18T18:00:21;20.50;99.90
7936;DHT22;4013;49.744;8.118;2023-09-18T18:02:48;20.40;99.90
7936;DHT22;4013;49.744;8.118;2023-09-18T18:05:15;20.40;99.90
7936;DHT22;4013;49.744;8.118;2023-09-18T18:07:41;20.40;99.90
7936;DHT22;4013;49.744;8.118;2023-09-18T18:10:10;20.30;99.90
7936;DHT22;4013;49.744;8.118;2023-09-18T18:12:38;20.30;99.90
7936;DHT22;4013;49.744;8.118;2023-09-18T18:15:05;20.30;99.90
7936;DHT22;4013;49.744;8.118;2023-09-18T18:17:34;20.20;99.90
7936;DHT22;4013;49.744;8.118;2023-09-18T18:20:00;20.20;99.90
7936;DHT22;4013;49.744;8.118;2023-09-18T18:22:31;20.10;99.90
7936;DHT22;4013;49.744;8.118;2023-09-18T18:24:57;20.10;99.90
7936;DHT22;4013;49.744;8.118;2023-09-18T18:27:25;20.00;99.90
7936;DHT22;4013;49.744;8.118;2023-09-18T18:29:52;20.00;99.90
7936;DHT22;4013;49.744;8.118;2023-09-18T18:32:19;19.90;99.90
7936;DHT22;4013;49.744;8.118;2023-09-18T18:34:46;19.80;99.90
7936;DHT22;4013;49.744;8.118;2023-09-18T18:37:12;19.80;99.90
7936;DHT22;4013;49.744;8.118;2023-09-18T18:39:39;19.80;99.90
7936;DHT22;4013;49.744;8.118;2023-09-18T18:42:06;19.80;99.90
7936;DHT22;4013;49.744;8.118;2023-09-18T18:44:34;19.80;99.90
7936;DHT22;4013;49.744;8.118;2023-09-18T18:47:01;19.70;99.90
7936;DHT22;4013;49.744;8.118;2023-09-18T18:49:28;19.70;99.90
7936;DHT22;4013;49.744;8.118;2023-09-18T18:51:56;19.70;99.90
7936;DHT22;4013;49.744;8.118;2023-09-18T18:54:23;19.60;99.90
7936;DHT22;4013;49.744;8.118;2023-09-18T18:56:50;19.60;99.90
7936;DHT22;4013;49.744;8.118;2023-09-18T18:59:17;19.50;99.90
7936;DHT22;4013;49.744;8.118;2023-09-18T19:01:45;19.50;99.90
7936;DHT22;4013;49.744;8.118;2023-09-18T19:04:12;19.50;99.90
7936;DHT22;4013;49.744;8.118;2023-09-18T19:06:38;19.50;99.90
7936;DHT22;4013;49.744;8.118;2023-09-18T19:09:06;19.50;99.90
7936;DHT22;4013;49.744;8.118;2023-09-18T19:11:32;19.50;99.90
7936;DHT22;4013;49.744;8.118;2023-09-18T19:13:59;19.50;99.90
7936;DHT22;4013;49.744;8.118;2023-09-18T19:16:26;19.50;99.90
7936;DHT22;4013;49.744;8.118;2023-09-18T19:18:54;19.50;99.90
7936;DHT22;4013;49.744;8.118;2023-09-18T19:21:22;19.40;99.90
7936;DHT22;4013;49.744;8.118;2023-09-18T19:23:49;19.40;99.90
7936;DHT22;4013;49.744;8.118;2023-09-18T19:26:16;19.40;99.90
7936;DHT22;4013;49.744;8.118;2023-09-18T19:28:44;19.30;99.90
7936;DHT22;4013;49.744;8.118;2023-09-18T19:31:11;19.20;99.90
7936;DHT22;4013;49.744;8.118;2023-09-18T19:33:38;19.20;99.90
7936;DHT22;4013;49.744;8.118;2023-09-18T19:36:06;19.10;99.90
7936;DHT22;4013;49.744;8.118;2023-09-18T19:38:32;19.10;99.90
7936;DHT22;4013;49.744;8.118;2023-09-18T19:41:01;19.10;99.90
7936;DHT22;4013;49.744;8.118;2023-09-18T19:43:29;19.10;99.90
7936;DHT22;4013;49.744;8.118;2023-09-18T19:45:55;19.00;99.90
7936;DHT22;4013;49.744;8.118;2023-09-18T19:48:22;19.00;99.90
7936;DHT22;4013;49.744;8.118;2023-09-18T19:50:50;18.90;99.90
7936;DHT22;4013;49.744;8.118;2023-09-18T19:53:20;19.00;99.90
7936;DHT22;4013;49.744;8.118;2023-09-18T19:55:47;19.00;99.90
7936;DHT22;4013;49.744;8.118;2023-09-18T19:58:13;18.90;99.90
7936;DHT22;4013;49.744;8.118;2023-09-18T20:00:40;18.90;99.90
7936;DHT22;4013;49.744;8.118;2023-09-18T20:03:07;18.90;99.90
7936;DHT22;4013;49.744;8.118;2023-09-18T20:05:33;18.80;99.90
7936;DHT22;4013;49.744;8.118;2023-09-18T20:08:00;18.80;99.90
7936;DHT22;4013;49.744;8.118;2023-09-18T20:10:29;18.80;99.90
7936;DHT22;4013;49.744;8.118;2023-09-18T20:12:56;18.80;99.90
7936;DHT22;4013;49.744;8.118;2023-09-18T20:15:24;18.70;99.90
7936;DHT22;4013;49.744;8.118;2023-09-18T20:17:51;18.80;99.90
7936;DHT22;4013;49.744;8.118;2023-09-18T20:20:18;18.70;99.90
7936;DHT22;4013;49.744;8.118;2023-09-18T20:22:45;18.70;99.90
7936;DHT22;4013;49.744;8.118;2023-09-18T20:25:11;18.80;99.90
7936;DHT22;4013;49.744;8.118;2023-09-18T20:27:40;18.80;99.90
7936;DHT22;4013;49.744;8.118;2023-09-18T20:30:08;18.60;99.90
7936;DHT22;4013;49.744;8.118;2023-09-18T20:32:36;18.50;99.90
7936;DHT22;4013;49.744;8.118;2023-09-18T20:35:03;18.60;99.90
7936;DHT22;4013;49.744;8.118;2023-09-18T20:37:30;18.50;99.90
7936;DHT22;4013;49.744;8.118;2023-09-18T20:39:57;18.50;99.90
7936;DHT22;4013;49.744;8.118;2023-09-18T20:42:25;18.50;99.90
7936;DHT22;4013;49.744;8.118;2023-09-18T20:44:54;18.60;99.90
7936;DHT22;4013;49.744;8.118;2023-09-18T20:47:22;18.60;99.90
7936;DHT22;4013;49.744;8.118;2023-09-18T20:49:48;18.60;99.90
7936;DHT22;4013;49.744;8.118;2023-09-18T20:52:15;18.60;99.90
7936;DHT22;4013;49.744;8.118;2023-09-18T20:54:42;18.70;99.90
7936;DHT22;4013;49.744;8.118;2023-09-18T20:57:09;18.60;99.90